Time;durP1;ratioP1;P1;durP2;ratioP2;P2;SDS_P1;SDS_P2;PMS_P1;PMS_P2;Temp;Humidity;BMP_temperature;BMP_pressure;BME280_temperature;BME280_humidity;BME280_pressure;Samples;Min_cycle;Max_cycle;Signal;HPM_P1;HPM_P2
2022/12/07 00:01:51;;;;;;;7.30;4.35;;;;;;;;;;5013371;28;20073;-91
2022/12/07 00:04:18;;;;;;;5.70;4.22;;;;;;;;;;5029986;28;20490;-91
2022/12/07 00:06:47;;;;;;;5.68;4.30;;;;;;;;;;5029627;28;20060;-91
2022/12/07 00:09:15;;;;;;;5.18;4.47;;;;;;;;;;5029678;28;20500;-91
2022/12/07 00:11:42;;;;;;;6.30;3.90;;;;;;;;;;5029608;28;20054;-90
2022/12/07 00:14:14;;;;;;;4.00;3.70;;;;;;;;;;5029508;28;20046;-91
2022/12/07 00:16:42;;;;;;;4.25;3.90;;;;;;;;;;5029469;28;20103;-91
2022/12/07 00:19:10;;;;;;;5.38;4.50;;;;;;;;;;5029437;28;20077;-91
2022/12/07 00:21:37;;;;;;;5.28;3.72;;;;;;;;;;5029764;28;20479;-91
2022/12/07 00:24:05;;;;;;;5.57;3.55;;;;;;;;;;5029178;28;20481;-92
2022/12/07 00:26:37;;;;;;;5.65;4.13;;;;;;;;;;5029466;28;20049;-91
2022/12/07 00:29:06;;;;;;;4.22;3.85;;;;;;;;;;5029151;28;20053;-91
2022/12/07 00:31:38;;;;;;;4.30;3.80;;;;;;;;;;5029316;28;20054;-91
2022/12/07 00:34:07;;;;;;;4.05;3.65;;;;;;;;;;5029137;28;20057;-91
2022/12/07 00:36:34;;;;;;;3.63;3.33;;;;;;;;;;5029286;28;20052;-91
2022/12/07 00:39:02;;;;;;;3.67;3.38;;;;;;;;;;5029173;28;20509;-91
2022/12/07 00:41:30;;;;;;;5.78;3.63;;;;;;;;;;5028846;28;20124;-90
2022/12/07 00:43:58;;;;;;;6.57;4.47;;;;;;;;;;5029133;28;20057;-90
2022/12/07 00:46:25;;;;;;;6.43;3.72;;;;;;;;;;5032897;28;20058;-90
2022/12/07 00:48:53;;;;;;;5.00;3.88;;;;;;;;;;5033399;28;20207;-90
2022/12/07 00:51:21;;;;;;;6.03;3.78;;;;;;;;;;5032934;28;20046;-91
2022/12/07 00:53:49;;;;;;;5.60;3.53;;;;;;;;;;5017846;28;20054;-90
2022/12/07 00:56:21;;;;;;;4.35;3.67;;;;;;;;;;5032461;28;20083;-90
2022/12/07 00:58:56;;;;;;;3.83;2.75;;;;;;;;;;5032673;28;20675;-90
2022/12/07 01:01:24;;;;;;;3.55;3.25;;;;;;;;;;5040755;28;20118;-90
2022/12/07 01:03:52;;;;;;;4.88;3.90;;;;;;;;;;5020666;28;20058;-90
2022/12/07 01:06:20;;;;;;;3.85;3.47;;;;;;;;;;5032750;28;20570;-90
2022/12/07 01:08:48;;;;;;;4.38;3.63;;;;;;;;;;5017283;28;20050;-91
2022/12/07 01:11:17;;;;;;;3.50;3.20;;;;;;;;;;5032428;28;20148;-90
2022/12/07 01:13:45;;;;;;;4.13;3.70;;;;;;;;;;5032478;28;20045;-90
2022/12/07 01:16:14;;;;;;;4.47;3.55;;;;;;;;;;5032585;28;20058;-90
2022/12/07 01:18:42;;;;;;;5.80;3.58;;;;;;;;;;5032359;28;20136;-89
2022/12/07 01:21:11;;;;;;;3.50;3.10;;;;;;;;;;5032680;28;20490;-91
2022/12/07 01:23:39;;;;;;;3.83;3.53;;;;;;;;;;5032245;28;20054;-91
2022/12/07 01:26:08;;;;;;;5.15;3.42;;;;;;;;;;5032445;28;20050;-91
2022/12/07 01:28:36;;;;;;;3.58;3.13;;;;;;;;;;5032463;28;20056;-91
2022/12/07 01:31:04;;;;;;;3.70;3.10;;;;;;;;;;5032194;28;20050;-91
2022/12/07 01:33:33;;;;;;;4.25;3.58;;;;;;;;;;5032070;28;20046;-91
2022/12/07 01:36:05;;;;;;;5.35;3.60;;;;;;;;;;5032321;28;20054;-90
2022/12/07 01:38:33;;;;;;;4.20;3.80;;;;;;;;;;5031744;28;20050;-90
2022/12/07 01:41:01;;;;;;;3.80;3.40;;;;;;;;;;5032270;28;20049;-91
2022/12/07 01:43:30;;;;;;;4.05;3.70;;;;;;;;;;5032229;28;20128;-90
2022/12/07 01:45:57;;;;;;;4.13;3.45;;;;;;;;;;5031774;28;20054;-91
2022/12/07 01:48:28;;;;;;;5.55;4.40;;;;;;;;;;5031799;28;20117;-90
2022/12/07 01:50:57;;;;;;;7.72;4.80;;;;;;;;;;5031964;28;20050;-91
2022/12/07 01:53:26;;;;;;;5.07;4.18;;;;;;;;;;5032238;28;20053;-91
2022/12/07 01:55:53;;;;;;;6.38;4.60;;;;;;;;;;5031591;28;20046;-91
2022/12/07 01:58:21;;;;;;;6.55;5.03;;;;;;;;;;5031188;28;20069;-91
2022/12/07 02:00:48;;;;;;;6.15;4.80;;;;;;;;;;5031723;28;20066;-90
2022/12/07 02:03:24;;;;;;;11.13;5.55;;;;;;;;;;5031637;28;20060;-90
2022/12/07 02:05:53;;;;;;;6.20;4.95;;;;;;;;;;5031604;28;20042;-90
2022/12/07 02:08:21;;;;;;;5.43;4.85;;;;;;;;;;5030902;28;20104;-90
2022/12/07 02:10:49;;;;;;;4.07;3.70;;;;;;;;;;5031380;28;20054;-90
2022/12/07 02:13:20;;;;;;;4.43;3.30;;;;;;;;;;5031513;28;20406;-90
2022/12/07 02:15:51;;;;;;;6.30;4.00;;;;;;;;;;5031500;28;20054;-90
2022/12/07 02:18:24;;;;;;;5.05;3.42;;;;;;;;;;5031325;28;20050;-90
2022/12/07 02:21:16;;;;;;;7.43;4.10;;;;;;;;;;5031279;28;20058;-90
2022/12/07 02:23:46;;;;;;;4.78;3.72;;;;;;;;;;4987808;28;20060;-90
2022/12/07 02:26:24;;;;;;;4.63;4.13;;;;;;;;;;5031361;28;20134;-90
2022/12/07 02:29:18;;;;;;;4.45;4.05;;;;;;;;;;5031463;28;20070;-90
2022/12/07 02:31:51;;;;;;;7.03;4.55;;;;;;;;;;5013027;28;20077;-90
2022/12/07 02:34:22;;;;;;;6.13;4.88;;;;;;;;;;5016056;28;20123;-90
2022/12/07 02:36:53;;;;;;;9.50;5.72;;;;;;;;;;5031272;28;20046;-90
2022/12/07 02:39:25;;;;;;;7.57;5.10;;;;;;;;;;5030997;28;20473;-90
2022/12/07 02:41:56;;;;;;;6.75;4.60;;;;;;;;;;5031112;28;20450;-90
2022/12/07 02:44:26;;;;;;;7.05;5.20;;;;;;;;;;5030155;28;20085;-89
2022/12/07 02:47:09;;;;;;;6.28;4.90;;;;;;;;;;5031018;28;20495;-90
2022/12/07 02:49:39;;;;;;;8.32;5.07;;;;;;;;;;5034904;28;20390;-91
2022/12/07 02:52:06;;;;;;;11.20;5.47;;;;;;;;;;5031035;28;20056;-90
2022/12/07 02:54:33;;;;;;;6.95;5.35;;;;;;;;;;5031240;28;20136;-90
2022/12/07 02:57:07;;;;;;;8.10;5.00;;;;;;;;;;5031136;28;20060;-90
2022/12/07 02:59:35;;;;;;;7.72;5.30;;;;;;;;;;5030411;28;20049;-90
2022/12/07 03:02:11;;;;;;;7.57;5.18;;;;;;;;;;5031157;28;20050;-91
2022/12/07 03:04:54;;;;;;;10.15;6.25;;;;;;;;;;5030879;28;20054;-91
2022/12/07 03:07:39;;;;;;;8.15;5.90;;;;;;;;;;5030438;28;20046;-91
2022/12/07 03:10:25;;;;;;;6.45;5.28;;;;;;;;;;5030654;28;20056;-92
2022/12/07 03:12:55;;;;;;;12.75;5.60;;;;;;;;;;5031115;28;20064;-91
2022/12/07 03:15:30;;;;;;;5.13;4.43;;;;;;;;;;5030904;28;20050;-92
2022/12/07 03:17:58;;;;;;;8.02;5.13;;;;;;;;;;5030190;28;20065;-91
2022/12/07 03:20:26;;;;;;;7.95;5.60;;;;;;;;;;5041933;28;20069;-91
2022/12/07 03:22:54;;;;;;;7.45;5.85;;;;;;;;;;5036218;28;20088;-91
2022/12/07 03:25:22;;;;;;;9.15;5.72;;;;;;;;;;5030348;28;20410;-92
2022/12/07 03:27:58;;;;;;;9.07;6.40;;;;;;;;;;5030218;28;20480;-92
2022/12/07 03:30:32;;;;;;;9.95;6.78;;;;;;;;;;5029963;28;20054;-91
2022/12/07 03:32:59;;;;;;;10.57;6.57;;;;;;;;;;5030573;28;20520;-92
2022/12/07 03:35:26;;;;;;;15.13;7.55;;;;;;;;;;5030285;28;20066;-91
2022/12/07 03:38:02;;;;;;;11.05;7.10;;;;;;;;;;5030143;28;20054;-91
2022/12/07 03:40:40;;;;;;;13.38;6.95;;;;;;;;;;5030493;28;20054;-91
2022/12/07 03:43:08;;;;;;;14.38;7.90;;;;;;;;;;5029960;28;20064;-91
2022/12/07 03:45:43;;;;;;;16.60;7.82;;;;;;;;;;5030303;28;20085;-92
2022/12/07 03:48:22;;;;;;;16.08;7.57;;;;;;;;;;5029854;28;20046;-92
2022/12/07 03:51:07;;;;;;;17.55;7.70;;;;;;;;;;5029387;28;20561;-91
2022/12/07 03:53:35;;;;;;;16.63;7.88;;;;;;;;;;5029856;28;20045;-92
2022/12/07 03:56:02;;;;;;;13.85;7.32;;;;;;;;;;5030143;28;20076;-92
2022/12/07 03:58:30;;;;;;;9.57;6.70;;;;;;;;;;5029624;28;20136;-91
2022/12/07 04:00:57;;;;;;;12.43;7.18;;;;;;;;;;5029947;28;20129;-92
2022/12/07 04:03:25;;;;;;;9.30;6.85;;;;;;;;;;5029695;28;20068;-91
2022/12/07 04:05:52;;;;;;;12.93;7.53;;;;;;;;;;5029901;28;20053;-92
2022/12/07 04:08:19;;;;;;;12.55;7.22;;;;;;;;;;5029612;28;20049;-93
2022/12/07 04:10:47;;;;;;;12.32;6.70;;;;;;;;;;5029775;28;20053;-92
2022/12/07 04:13:14;;;;;;;9.43;6.78;;;;;;;;;;5029687;28;20054;-92
2022/12/07 04:15:42;;;;;;;10.32;6.70;;;;;;;;;;5029697;28;20080;-92
2022/12/07 04:18:09;;;;;;;17.13;7.30;;;;;;;;;;5029242;28;20107;-91
2022/12/07 04:20:36;;;;;;;11.15;6.72;;;;;;;;;;5029099;28;20488;-91
2022/12/07 04:23:04;;;;;;;12.18;7.20;;;;;;;;;;5029319;28;20064;-91
2022/12/07 04:25:31;;;;;;;14.65;6.78;;;;;;;;;;5029011;28;20056;-91
2022/12/07 04:27:58;;;;;;;8.85;6.03;;;;;;;;;;5028688;28;20046;-91
2022/12/07 04:30:26;;;;;;;9.52;6.60;;;;;;;;;;5029346;28;20069;-92
2022/12/07 04:32:53;;;;;;;9.10;6.53;;;;;;;;;;5029244;28;20403;-92
2022/12/07 04:35:20;;;;;;;7.38;6.10;;;;;;;;;;5029202;28;20057;-92
2022/12/07 04:37:47;;;;;;;11.05;6.50;;;;;;;;;;5029209;28;20050;-91
2022/12/07 04:40:15;;;;;;;16.65;6.90;;;;;;;;;;5029317;28;20080;-91
2022/12/07 04:42:42;;;;;;;12.88;7.20;;;;;;;;;;5029045;28;20045;-91
2022/12/07 04:45:10;;;;;;;12.02;6.93;;;;;;;;;;5029036;28;20117;-91
2022/12/07 04:47:37;;;;;;;14.38;8.02;;;;;;;;;;5013766;28;20056;-91
2022/12/07 04:50:05;;;;;;;9.82;6.85;;;;;;;;;;5029045;28;20061;-91
2022/12/07 04:52:32;;;;;;;9.90;6.25;;;;;;;;;;5029187;28;20054;-92
2022/12/07 04:55:00;;;;;;;11.68;7.85;;;;;;;;;;5029117;28;20072;-91
2022/12/07 04:57:27;;;;;;;13.85;6.85;;;;;;;;;;5032359;28;20053;-92
2022/12/07 04:59:54;;;;;;;11.20;6.75;;;;;;;;;;5032111;28;20061;-91
2022/12/07 05:02:22;;;;;;;16.40;11.68;;;;;;;;;;5032746;28;20053;-92
2022/12/07 05:04:49;;;;;;;19.88;12.95;;;;;;;;;;5032393;28;20049;-92
2022/12/07 05:07:16;;;;;;;15.35;8.60;;;;;;;;;;5032788;28;20073;-93
2022/12/07 05:09:44;;;;;;;11.63;7.75;;;;;;;;;;5032498;28;20041;-91
2022/12/07 05:12:11;;;;;;;13.35;7.72;;;;;;;;;;5033134;28;20046;-91
2022/12/07 05:14:38;;;;;;;8.50;6.35;;;;;;;;;;5032224;28;20490;-92
2022/12/07 05:17:06;;;;;;;7.78;5.97;;;;;;;;;;5033740;28;20054;-91
2022/12/07 05:19:33;;;;;;;11.63;6.13;;;;;;;;;;5033329;28;20064;-92
2022/12/07 05:22:00;;;;;;;10.90;6.35;;;;;;;;;;5032443;28;20041;-92
2022/12/07 05:24:27;;;;;;;9.43;6.75;;;;;;;;;;5032438;28;20076;-92
2022/12/07 05:26:54;;;;;;;6.00;4.93;;;;;;;;;;5033305;28;20065;-91
2022/12/07 05:29:22;;;;;;;11.02;6.95;;;;;;;;;;5032168;28;20053;-92
2022/12/07 05:31:49;;;;;;;8.65;6.80;;;;;;;;;;5036084;28;20079;-91
2022/12/07 05:34:17;;;;;;;6.70;5.82;;;;;;;;;;5035814;28;20133;-91
2022/12/07 05:36:44;;;;;;;8.30;5.32;;;;;;;;;;5036742;28;20481;-91
2022/12/07 05:39:12;;;;;;;9.38;5.65;;;;;;;;;;5045480;28;20057;-91
2022/12/07 05:44:24;;;;;;;10.10;7.13;;;;;;;;;;5036545;28;20072;-91
2022/12/07 05:46:52;;;;;;;6.32;5.32;;;;;;;;;;5035904;28;20049;-91
2022/12/07 05:49:19;;;;;;;10.23;6.57;;;;;;;;;;5036565;28;20049;-91
2022/12/07 05:51:46;;;;;;;7.50;6.35;;;;;;;;;;5035817;28;20481;-91
2022/12/07 05:54:13;;;;;;;7.22;6.53;;;;;;;;;;5035331;28;20060;-91
2022/12/07 05:56:41;;;;;;;8.93;7.93;;;;;;;;;;5035590;28;20072;-91
2022/12/07 05:59:24;;;;;;;7.53;6.82;;;;;;;;;;5036256;28;20057;-91
2022/12/07 06:01:51;;;;;;;7.10;5.82;;;;;;;;;;5035479;28;20045;-91
2022/12/07 06:04:19;;;;;;;4.28;3.90;;;;;;;;;;5036071;28;20045;-91
2022/12/07 06:06:46;;;;;;;5.07;4.57;;;;;;;;;;5035896;28;20046;-91
2022/12/07 06:09:14;;;;;;;4.50;4.18;;;;;;;;;;5035138;28;20056;-91
2022/12/07 06:14:27;;;;;;;9.63;5.18;;;;;;;;;;5036419;28;20049;-91
2022/12/07 06:16:55;;;;;;;5.18;4.40;;;;;;;;;;5034997;28;20049;-91
2022/12/07 06:19:22;;;;;;;11.68;5.53;;;;;;;;;;5034681;28;20057;-91
2022/12/07 06:21:50;;;;;;;5.40;4.90;;;;;;;;;;5035094;28;20052;-91
2022/12/07 06:24:17;;;;;;;6.90;5.60;;;;;;;;;;5035380;28;20050;-92
2022/12/07 06:26:45;;;;;;;5.78;4.68;;;;;;;;;;5034932;28;20064;-91
2022/12/07 06:29:12;;;;;;;6.20;4.85;;;;;;;;;;5034590;28;20042;-91
2022/12/07 06:31:40;;;;;;;4.50;4.10;;;;;;;;;;5034658;28;20060;-91
2022/12/07 06:34:10;;;;;;;4.43;4.03;;;;;;;;;;5034852;28;20406;-91
2022/12/07 06:36:37;;;;;;;4.30;3.72;;;;;;;;;;5035090;28;20508;-91
2022/12/07 06:39:05;;;;;;;5.38;3.70;;;;;;;;;;5034614;28;20055;-91
2022/12/07 06:41:32;;;;;;;3.67;3.28;;;;;;;;;;5034623;28;20049;-91
2022/12/07 06:44:00;;;;;;;3.22;2.90;;;;;;;;;;5033838;28;20387;-91
2022/12/07 06:46:27;;;;;;;3.53;3.22;;;;;;;;;;5034305;28;20088;-91
2022/12/07 06:48:54;;;;;;;8.50;6.82;;;;;;;;;;5033497;28;20055;-91
2022/12/07 06:51:22;;;;;;;11.95;9.15;;;;;;;;;;5034345;28;20060;-91
2022/12/07 06:53:49;;;;;;;24.17;15.77;;;;;;;;;;5034162;28;20120;-91
2022/12/07 06:56:16;;;;;;;18.48;11.35;;;;;;;;;;5034978;28;20057;-91
2022/12/07 06:58:44;;;;;;;7.85;6.75;;;;;;;;;;5034628;28;20052;-91
2022/12/07 07:01:11;;;;;;;9.27;6.43;;;;;;;;;;5034407;28;20053;-91
2022/12/07 07:03:39;;;;;;;4.38;4.07;;;;;;;;;;5033865;28;20046;-91
2022/12/07 07:06:07;;;;;;;3.15;2.95;;;;;;;;;;5034011;28;20137;-91
2022/12/07 07:08:35;;;;;;;3.88;3.65;;;;;;;;;;5033880;28;20049;-90
2022/12/07 07:11:02;;;;;;;4.43;3.28;;;;;;;;;;5033497;28;20050;-91
2022/12/07 07:13:29;;;;;;;3.08;2.88;;;;;;;;;;5034552;28;20092;-90
2022/12/07 07:15:57;;;;;;;8.35;3.60;;;;;;;;;;5033346;28;20046;-89
2022/12/07 07:18:24;;;;;;;5.20;4.35;;;;;;;;;;5034135;28;20076;-91
2022/12/07 07:20:52;;;;;;;6.03;3.67;;;;;;;;;;5034104;28;20656;-90
2022/12/07 07:23:19;;;;;;;10.90;4.43;;;;;;;;;;5034618;28;20132;-90
2022/12/07 07:25:47;;;;;;;21.10;13.75;;;;;;;;;;5033518;28;20692;-91
2022/12/07 07:28:14;;;;;;;15.20;10.52;;;;;;;;;;5033345;28;20137;-91
2022/12/07 07:30:41;;;;;;;18.77;14.15;;;;;;;;;;5033894;28;20045;-90
2022/12/07 07:33:10;;;;;;;7.05;3.83;;;;;;;;;;5034601;28;20057;-91
2022/12/07 07:35:37;;;;;;;14.68;6.20;;;;;;;;;;5034770;28;20442;-91
2022/12/07 07:38:05;;;;;;;7.57;6.38;;;;;;;;;;5033537;28;20060;-90
2022/12/07 07:40:32;;;;;;;7.25;5.10;;;;;;;;;;5033130;28;20053;-91
2022/12/07 07:42:59;;;;;;;4.97;4.10;;;;;;;;;;5033859;28;20049;-89
2022/12/07 07:45:27;;;;;;;9.30;6.47;;;;;;;;;;5034434;28;20049;-90
2022/12/07 07:47:54;;;;;;;12.80;9.30;;;;;;;;;;5034452;28;20103;-90
2022/12/07 07:50:22;;;;;;;6.53;5.93;;;;;;;;;;5033305;28;20049;-90
2022/12/07 07:52:50;;;;;;;13.50;7.70;;;;;;;;;;5034043;28;20045;-90
2022/12/07 07:55:17;;;;;;;14.98;11.75;;;;;;;;;;5032472;28;20159;-91
2022/12/07 07:57:44;;;;;;;10.98;7.97;;;;;;;;;;5034812;28;20050;-90
2022/12/07 08:00:20;;;;;;;11.25;9.15;;;;;;;;;;5037581;28;20045;-90
2022/12/07 08:02:49;;;;;;;9.38;5.25;;;;;;;;;;5033254;28;20045;-89
2022/12/07 08:05:17;;;;;;;5.95;4.82;;;;;;;;;;5033788;28;20049;-90
2022/12/07 08:07:44;;;;;;;5.80;5.20;;;;;;;;;;5032702;28;20156;-91
2022/12/07 08:10:12;;;;;;;5.95;5.35;;;;;;;;;;5033024;28;20045;-90
2022/12/07 08:13:10;;;;;;;9.50;5.20;;;;;;;;;;5034148;28;20045;-90
2022/12/07 08:15:28;;;;;;;7.30;6.25;;;;;;;;;;5033792;28;20079;-90
2022/12/07 08:17:55;;;;;;;7.57;5.25;;;;;;;;;;5032938;28;20509;-90
2022/12/07 08:20:23;;;;;;;6.10;5.18;;;;;;;;;;5032634;28;20053;-90
2022/12/07 08:22:50;;;;;;;8.88;6.50;;;;;;;;;;5033879;28;20058;-90
2022/12/07 08:25:18;;;;;;;10.27;6.75;;;;;;;;;;5033192;28;20057;-90
2022/12/07 08:27:45;;;;;;;16.20;8.05;;;;;;;;;;5032924;28;20069;-90
2022/12/07 08:30:12;;;;;;;14.68;8.98;;;;;;;;;;5032501;28;20493;-90
2022/12/07 08:32:40;;;;;;;16.23;10.45;;;;;;;;;;5032591;28;20052;-90
2022/12/07 08:35:08;;;;;;;10.90;8.68;;;;;;;;;;5032498;28;20486;-89
2022/12/07 08:37:36;;;;;;;8.93;6.68;;;;;;;;;;5032638;28;20049;-90
2022/12/07 08:40:04;;;;;;;8.68;7.03;;;;;;;;;;5032542;28;20053;-90
2022/12/07 08:42:37;;;;;;;10.50;6.25;;;;;;;;;;5032824;28;20486;-90
2022/12/07 08:45:09;;;;;;;13.88;7.32;;;;;;;;;;5032314;28;20069;-90
2022/12/07 08:47:42;;;;;;;30.58;13.55;;;;;;;;;;5032728;28;20041;-90
2022/12/07 08:50:11;;;;;;;59.88;26.15;;;;;;;;;;5033146;28;20490;-90
2022/12/07 08:52:38;;;;;;;24.25;10.45;;;;;;;;;;5032444;28;20136;-90
2022/12/07 08:55:06;;;;;;;15.30;8.07;;;;;;;;;;5033367;28;20418;-90
2022/12/07 08:57:35;;;;;;;12.50;6.03;;;;;;;;;;5033271;28;20049;-89
2022/12/07 09:00:03;;;;;;;14.98;6.10;;;;;;;;;;5032313;28;20054;-90
2022/12/07 09:02:32;;;;;;;14.15;6.15;;;;;;;;;;5048996;28;20136;-90
2022/12/07 09:04:59;;;;;;;10.30;5.70;;;;;;;;;;5032318;28;20060;-90
2022/12/07 09:07:26;;;;;;;16.27;6.88;;;;;;;;;;5036665;28;20061;-90
2022/12/07 09:09:54;;;;;;;12.13;5.45;;;;;;;;;;5036213;28;20045;-90
2022/12/07 09:12:21;;;;;;;11.45;5.07;;;;;;;;;;5037234;28;20049;-90
2022/12/07 09:14:48;;;;;;;13.80;6.72;;;;;;;;;;5037210;28;20053;-90
2022/12/07 09:17:15;;;;;;;12.32;5.70;;;;;;;;;;5036028;28;20049;-90
2022/12/07 09:19:43;;;;;;;13.27;5.65;;;;;;;;;;5036099;28;20399;-89
2022/12/07 09:22:10;;;;;;;13.98;7.53;;;;;;;;;;5036182;28;20045;-88
2022/12/07 09:24:37;;;;;;;11.68;6.38;;;;;;;;;;5035659;28;20061;-89
2022/12/07 09:27:05;;;;;;;14.63;7.97;;;;;;;;;;5036056;28;20089;-90
2022/12/07 09:29:32;;;;;;;17.20;10.13;;;;;;;;;;5036961;28;20128;-89
2022/12/07 09:31:59;;;;;;;17.20;6.65;;;;;;;;;;5036835;28;20055;-90
2022/12/07 09:34:26;;;;;;;12.13;6.75;;;;;;;;;;5035491;28;20074;-90
2022/12/07 09:36:54;;;;;;;5.15;4.10;;;;;;;;;;5036814;28;20057;-89
2022/12/07 09:39:21;;;;;;;5.90;3.75;;;;;;;;;;5035327;28;20061;-89
2022/12/07 09:41:48;;;;;;;6.30;3.17;;;;;;;;;;5035698;28;20060;-89
2022/12/07 09:44:22;;;;;;;3.33;1.77;;;;;;;;;;5035432;28;20045;-89
2022/12/07 09:46:50;;;;;;;2.95;1.67;;;;;;;;;;5035771;28;20133;-89
2022/12/07 09:49:19;;;;;;;1.92;1.17;;;;;;;;;;5035147;28;20077;-90
2022/12/07 09:51:47;;;;;;;1.45;1.35;;;;;;;;;;5035464;28;20410;-90
2022/12/07 09:54:16;;;;;;;1.30;1.00;;;;;;;;;;5035464;28;20482;-89
2022/12/07 09:56:44;;;;;;;3.92;1.02;;;;;;;;;;5036376;28;20053;-89
2022/12/07 09:59:14;;;;;;;2.70;1.00;;;;;;;;;;5035244;28;20048;-89
2022/12/07 10:01:41;;;;;;;3.88;1.45;;;;;;;;;;5036166;28;20053;-89
2022/12/07 10:04:14;;;;;;;2.40;1.00;;;;;;;;;;5036306;28;20119;-89
2022/12/07 10:06:42;;;;;;;1.05;0.88;;;;;;;;;;5035397;28;20459;-89
2022/12/07 10:09:10;;;;;;;1.48;1.20;;;;;;;;;;5036039;28;20128;-88
2022/12/07 10:11:57;;;;;;;4.82;1.33;;;;;;;;;;5035270;28;20054;-89
2022/12/07 10:14:26;;;;;;;1.27;1.17;;;;;;;;;;5034881;28;20057;-89
2022/12/07 10:17:29;;;;;;;1.38;1.27;;;;;;;;;;5034512;28;20050;-90
2022/12/07 10:20:26;;;;;;;3.20;1.20;;;;;;;;;;5036816;28;20579;-88
2022/12/07 10:23:04;;;;;;;1.20;1.10;;;;;;;;;;5034999;28;20057;-89
2022/12/07 10:25:34;;;;;;;6.10;2.58;;;;;;;;;;5034957;28;20056;-89
2022/12/07 10:28:01;;;;;;;3.97;1.90;;;;;;;;;;5033609;28;20049;-90
2022/12/07 10:30:29;;;;;;;4.45;2.22;;;;;;;;;;5034757;28;20056;-89
2022/12/07 10:32:56;;;;;;;5.50;2.40;;;;;;;;;;5035751;28;20504;-89
2022/12/07 10:35:25;;;;;;;4.97;1.92;;;;;;;;;;5034713;28;20113;-89
2022/12/07 10:37:53;;;;;;;5.38;2.28;;;;;;;;;;5034618;28;20053;-89
2022/12/07 10:40:31;;;;;;;4.93;2.00;;;;;;;;;;5034498;28;20486;-89
2022/12/07 10:43:13;;;;;;;3.80;1.42;;;;;;;;;;5034666;28;20045;-89
2022/12/07 10:45:59;;;;;;;1.27;1.17;;;;;;;;;;5035084;28;20439;-90
2022/12/07 10:48:36;;;;;;;3.85;1.25;;;;;;;;;;5035997;28;20076;-89
2022/12/07 10:51:14;;;;;;;2.90;1.20;;;;;;;;;;5035248;28;20045;-90
2022/12/07 10:54:00;;;;;;;2.75;1.00;;;;;;;;;;5034551;28;20053;-90
2022/12/07 10:56:48;;;;;;;1.17;1.08;;;;;;;;;;5034196;28;20061;-89
2022/12/07 10:59:27;;;;;;;1.60;1.00;;;;;;;;;;5035394;28;20504;-88
2022/12/07 11:01:58;;;;;;;1.23;1.20;;;;;;;;;;5034406;28;20049;-89
2022/12/07 11:04:32;;;;;;;1.08;1.00;;;;;;;;;;5034246;28;20414;-89
2022/12/07 11:07:11;;;;;;;1.58;1.00;;;;;;;;;;5034121;28;20057;-89
2022/12/07 11:09:53;;;;;;;1.77;1.20;;;;;;;;;;5034015;28;20486;-88
2022/12/07 11:12:46;;;;;;;1.30;0.82;;;;;;;;;;5034215;28;20131;-89
2022/12/07 11:15:30;;;;;;;1.05;0.90;;;;;;;;;;5033672;28;20041;-89
2022/12/07 11:18:03;;;;;;;1.42;0.75;;;;;;;;;;5033771;28;20051;-89
2022/12/07 11:20:37;;;;;;;1.35;0.70;;;;;;;;;;5033512;28;20053;-87
2022/12/07 11:23:08;;;;;;;1.65;0.82;;;;;;;;;;5033359;28;20060;-88
2022/12/07 11:25:35;;;;;;;1.42;0.90;;;;;;;;;;5034675;28;20072;-88
2022/12/07 11:28:05;;;;;;;1.42;0.90;;;;;;;;;;5034508;28;20049;-89
2022/12/07 11:30:36;;;;;;;1.17;0.70;;;;;;;;;;5033680;28;20056;-88
2022/12/07 11:33:13;;;;;;;1.25;0.73;;;;;;;;;;5033980;28;20049;-88
2022/12/07 11:36:07;;;;;;;1.55;0.77;;;;;;;;;;5035033;28;20084;-89
2022/12/07 11:38:41;;;;;;;1.40;0.60;;;;;;;;;;5022915;28;20046;-89
2022/12/07 11:41:14;;;;;;;;;;;;;;;;;;5034758;28;20049;-89
2022/12/07 11:43:53;;;;;;;0.70;0.70;;;;;;;;;;5049994;28;20397;-89
2022/12/07 11:46:21;;;;;;;1.10;0.65;;;;;;;;;;5033913;28;20052;-89
2022/12/07 11:48:57;;;;;;;0.95;0.82;;;;;;;;;;5033490;28;20056;-89
2022/12/07 11:51:24;;;;;;;0.90;0.60;;;;;;;;;;5033236;28;20045;-89
2022/12/07 11:54:02;;;;;;;1.75;0.57;;;;;;;;;;5033850;28;20056;-89
2022/12/07 11:56:31;;;;;;;0.60;0.60;;;;;;;;;;5032944;28;20051;-89
2022/12/07 11:59:16;;;;;;;0.85;0.60;;;;;;;;;;5032962;28;20540;-88
2022/12/07 12:01:52;;;;;;;0.68;0.68;;;;;;;;;;5032768;28;20045;-88
2022/12/07 12:04:27;;;;;;;2.40;1.20;;;;;;;;;;5033029;28;20490;-89
2022/12/07 12:06:55;;;;;;;1.33;0.77;;;;;;;;;;5033388;28;20452;-89
2022/12/07 12:09:27;;;;;;;0.93;0.77;;;;;;;;;;5032640;28;20505;-88
2022/12/07 12:12:20;;;;;;;0.75;0.68;;;;;;;;;;5033333;28;20056;-89
2022/12/07 12:15:16;;;;;;;0.95;0.95;;;;;;;;;;5033514;28;20500;-88
2022/12/07 12:17:52;;;;;;;4.35;1.13;;;;;;;;;;5033664;28;20123;-89
2022/12/07 12:20:28;;;;;;;0.82;0.77;;;;;;;;;;5033569;28;20054;-88
2022/12/07 12:22:55;;;;;;;2.47;0.70;;;;;;;;;;5032701;28;20421;-88
2022/12/07 12:25:25;;;;;;;1.17;0.70;;;;;;;;;;5032887;28;20049;-87
2022/12/07 12:27:53;;;;;;;0.90;0.90;;;;;;;;;;5032730;28;20075;-87
2022/12/07 12:30:34;;;;;;;0.77;0.77;;;;;;;;;;5033610;28;20048;-88
2022/12/07 12:33:12;;;;;;;2.17;0.90;;;;;;;;;;5033103;28;20067;-89
2022/12/07 12:35:39;;;;;;;1.10;0.70;;;;;;;;;;5032656;28;20045;-88
2022/12/07 12:38:27;;;;;;;2.15;0.60;;;;;;;;;;5032627;28;20050;-89
2022/12/07 12:40:55;;;;;;;1.45;0.98;;;;;;;;;;5033421;28;20049;-88
2022/12/07 12:43:42;;;;;;;0.75;0.75;;;;;;;;;;5036828;28;20041;-88
2022/12/07 12:46:28;;;;;;;4.57;0.98;;;;;;;;;;5036761;28;20051;-89
2022/12/07 12:48:56;;;;;;;2.78;1.50;;;;;;;;;;5036612;28;20448;-89
2022/12/07 12:51:38;;;;;;;1.35;0.88;;;;;;;;;;5037008;28;20413;-89
2022/12/07 12:54:06;;;;;;;0.95;0.80;;;;;;;;;;5036536;28;20053;-88
2022/12/07 12:56:40;;;;;;;1.10;1.00;;;;;;;;;;5036471;28;20051;-89
2022/12/07 12:59:24;;;;;;;1.67;0.90;;;;;;;;;;5036253;28;20063;-89
2022/12/07 13:01:55;;;;;;;0.55;0.55;;;;;;;;;;5036171;28;20053;-89
2022/12/07 13:04:24;;;;;;;1.48;1.08;;;;;;;;;;5036563;28;20057;-89
2022/12/07 13:06:52;;;;;;;1.65;0.85;;;;;;;;;;5036351;28;20497;-89
2022/12/07 13:09:42;;;;;;;1.80;0.82;;;;;;;;;;5036231;28;20050;-89
2022/12/07 13:12:14;;;;;;;1.38;0.73;;;;;;;;;;5036349;28;20164;-89
2022/12/07 13:14:58;;;;;;;8.77;0.98;;;;;;;;;;5036255;28;20055;-89
2022/12/07 13:17:32;;;;;;;6.78;1.30;;;;;;;;;;5036100;28;20057;-89
2022/12/07 13:19:59;;;;;;;;;;;;;;;;;;5036411;28;20076;-87
2022/12/07 13:22:39;;;;;;;0.70;0.63;;;;;;;;;;5052372;28;19928;-89
2022/12/07 13:25:26;;;;;;;0.60;0.60;;;;;;;;;;5035752;28;20068;-89
2022/12/07 13:27:58;;;;;;;0.55;0.55;;;;;;;;;;5039502;28;20045;-89
2022/12/07 13:30:27;;;;;;;2.28;0.82;;;;;;;;;;5035770;28;20054;-88
2022/12/07 13:32:55;;;;;;;1.27;0.75;;;;;;;;;;5035862;28;20046;-88
2022/12/07 13:35:32;;;;;;;0.73;0.73;;;;;;;;;;5035756;28;20059;-89
2022/12/07 13:38:02;;;;;;;3.45;0.80;;;;;;;;;;5035843;28;20052;-88
2022/12/07 13:40:30;;;;;;;1.25;0.77;;;;;;;;;;5035619;28;20052;-88
2022/12/07 13:43:01;;;;;;;1.40;0.68;;;;;;;;;;5035232;28;20068;-89
2022/12/07 13:45:48;;;;;;;0.95;0.60;;;;;;;;;;5035618;28;20052;-89
2022/12/07 13:48:16;;;;;;;2.60;0.70;;;;;;;;;;5035501;28;20045;-89
2022/12/07 13:50:43;;;;;;;1.73;1.10;;;;;;;;;;5035553;28;20068;-89
2022/12/07 13:53:14;;;;;;;0.50;0.50;;;;;;;;;;5035370;28;20041;-89
2022/12/07 13:55:45;;;;;;;1.70;0.77;;;;;;;;;;5035401;28;20133;-88
2022/12/07 13:58:20;;;;;;;2.05;0.80;;;;;;;;;;5035575;28;20056;-89
2022/12/07 14:00:47;;;;;;;0.80;0.80;;;;;;;;;;5036221;28;20052;-89
2022/12/07 14:03:14;;;;;;;1.30;1.00;;;;;;;;;;5035214;28;20057;-88
2022/12/07 14:05:43;;;;;;;1.88;1.10;;;;;;;;;;5035317;28;20071;-88
2022/12/07 14:08:10;;;;;;;0.90;0.90;;;;;;;;;;5035354;28;20137;-89
2022/12/07 14:10:38;;;;;;;1.27;0.70;;;;;;;;;;5035058;28;20069;-89
2022/12/07 14:13:25;;;;;;;1.85;0.82;;;;;;;;;;5035154;28;20060;-89
2022/12/07 14:15:52;;;;;;;6.05;1.00;;;;;;;;;;5035177;28;20045;-87
2022/12/07 14:18:30;;;;;;;1.27;1.00;;;;;;;;;;5034849;28;20053;-89
2022/12/07 14:21:03;;;;;;;1.05;0.82;;;;;;;;;;5035377;28;20096;-89
2022/12/07 14:23:31;;;;;;;1.90;1.30;;;;;;;;;;5034827;28;20075;-89
2022/12/07 14:26:07;;;;;;;3.13;1.00;;;;;;;;;;5034867;28;20057;-89
2022/12/07 14:28:36;;;;;;;3.47;1.02;;;;;;;;;;5034780;28;20051;-89
2022/12/07 14:31:03;;;;;;;1.55;1.45;;;;;;;;;;5034502;28;20489;-89
2022/12/07 14:33:30;;;;;;;3.05;1.23;;;;;;;;;;5034694;28;20045;-89
2022/12/07 14:35:58;;;;;;;2.70;1.58;;;;;;;;;;5034617;28;20057;-89
2022/12/07 14:38:26;;;;;;;2.15;1.40;;;;;;;;;;5034668;28;20052;-89
2022/12/07 14:40:54;;;;;;;12.07;3.00;;;;;;;;;;5034562;28;20050;-89
2022/12/07 14:43:21;;;;;;;12.77;2.25;;;;;;;;;;5034477;28;20050;-89
2022/12/07 14:45:48;;;;;;;5.50;1.58;;;;;;;;;;5035436;28;20421;-89
2022/12/07 14:48:16;;;;;;;5.53;1.90;;;;;;;;;;5034509;28;20390;-89
2022/12/07 14:51:04;;;;;;;2.53;1.15;;;;;;;;;;5034503;28;20053;-89
2022/12/07 14:53:52;;;;;;;3.45;2.00;;;;;;;;;;5034110;28;20515;-89
2022/12/07 14:56:24;;;;;;;6.90;3.80;;;;;;;;;;5034348;28;20458;-89
2022/12/07 14:58:51;;;;;;;8.45;5.43;;;;;;;;;;5033762;28;20045;-88
2022/12/07 15:01:18;;;;;;;5.50;4.20;;;;;;;;;;5034768;28;20486;-88
2022/12/07 15:03:46;;;;;;;5.03;1.83;;;;;;;;;;5034439;28;20049;-88
2022/12/07 15:06:14;;;;;;;3.55;2.47;;;;;;;;;;5033525;28;20053;-86
2022/12/07 15:08:43;;;;;;;2.42;2.05;;;;;;;;;;5033948;28;20053;-88